sensor_id;sensor_type;location;lat;lon;timestamp;temperature;humidity
19174;DHT22;9719;49.322;8.536;2023-10-13T00:01:40;17.10;99.90
19174;DHT22;9719;49.322;8.536;2023-10-13T00:06:43;17.20;99.90
19174;DHT22;9719;49.322;8.536;2023-10-13T00:11:45;17.20;99.90
19174;DHT22;9719;49.322;8.536;2023-10-13T00:16:48;17.20;99.90
19174;DHT22;9719;49.322;8.536;2023-10-13T00:22:07;17.30;99.90
19174;DHT22;9719;49.322;8.536;2023-10-13T00:27:13;17.20;99.90
19174;DHT22;9719;49.322;8.536;2023-10-13T00:32:32;17.30;99.90
19174;DHT22;9719;49.322;8.536;2023-10-13T00:37:39;17.30;99.90
19174;DHT22;9719;49.322;8.536;2023-10-13T00:42:44;17.30;99.90
19174;DHT22;9719;49.322;8.536;2023-10-13T00:47:51;17.40;99.90
19174;DHT22;9719;49.322;8.536;2023-10-13T00:52:58;17.40;99.90
19174;DHT22;9719;49.322;8.536;2023-10-13T00:58:01;17.40;99.90
19174;DHT22;9719;49.322;8.536;2023-10-13T01:03:04;17.30;99.90
19174;DHT22;9719;49.322;8.536;2023-10-13T01:08:09;17.40;99.90
19174;DHT22;9719;49.322;8.536;2023-10-13T01:13:12;17.20;99.90
19174;DHT22;9719;49.322;8.536;2023-10-13T01:18:15;17.10;99.90
19174;DHT22;9719;49.322;8.536;2023-10-13T01:23:18;17.20;99.90
19174;DHT22;9719;49.322;8.536;2023-10-13T01:28:24;17.00;99.90
19174;DHT22;9719;49.322;8.536;2023-10-13T01:33:26;16.90;99.90
19174;DHT22;9719;49.322;8.536;2023-10-13T01:38:30;16.80;99.90
19174;DHT22;9719;49.322;8.536;2023-10-13T01:43:33;16.70;99.90
19174;DHT22;9719;49.322;8.536;2023-10-13T01:48:36;16.70;99.90
19174;DHT22;9719;49.322;8.536;2023-10-13T01:53:40;16.70;99.90
19174;DHT22;9719;49.322;8.536;2023-10-13T01:58:42;16.50;99.90
19174;DHT22;9719;49.322;8.536;2023-10-13T02:03:48;16.60;99.90
19174;DHT22;9719;49.322;8.536;2023-10-13T02:08:53;16.50;99.90
19174;DHT22;9719;49.322;8.536;2023-10-13T02:13:57;16.50;99.90
19174;DHT22;9719;49.322;8.536;2023-10-13T02:19:00;16.40;99.90
19174;DHT22;9719;49.322;8.536;2023-10-13T02:24:07;16.40;99.90
19174;DHT22;9719;49.322;8.536;2023-10-13T02:29:13;16.20;99.90
19174;DHT22;9719;49.322;8.536;2023-10-13T02:34:18;16.00;99.90
19174;DHT22;9719;49.322;8.536;2023-10-13T02:39:21;16.00;99.90
19174;DHT22;9719;49.322;8.536;2023-10-13T02:44:27;15.90;99.90
19174;DHT22;9719;49.322;8.536;2023-10-13T02:49:31;16.00;99.90
19174;DHT22;9719;49.322;8.536;2023-10-13T02:54:36;15.70;99.90
19174;DHT22;9719;49.322;8.536;2023-10-13T02:59:41;15.50;99.90
19174;DHT22;9719;49.322;8.536;2023-10-13T03:04:47;15.50;99.90
19174;DHT22;9719;49.322;8.536;2023-10-13T03:09:50;15.50;99.90
19174;DHT22;9719;49.322;8.536;2023-10-13T03:14:53;15.30;99.90
19174;DHT22;9719;49.322;8.536;2023-10-13T03:19:57;15.30;99.90
19174;DHT22;9719;49.322;8.536;2023-10-13T03:25:00;15.30;99.90
19174;DHT22;9719;49.322;8.536;2023-10-13T03:30:06;15.40;99.90
19174;DHT22;9719;49.322;8.536;2023-10-13T03:35:15;15.50;99.90
19174;DHT22;9719;49.322;8.536;2023-10-13T03:40:25;15.60;99.90
19174;DHT22;9719;49.322;8.536;2023-10-13T03:45:45;15.50;99.90
19174;DHT22;9719;49.322;8.536;2023-10-13T03:50:48;15.70;99.90
19174;DHT22;9719;49.322;8.536;2023-10-13T03:56:05;15.80;99.90
19174;DHT22;9719;49.322;8.536;2023-10-13T04:01:12;15.80;99.90
19174;DHT22;9719;49.322;8.536;2023-10-13T04:06:16;16.00;99.90
19174;DHT22;9719;49.322;8.536;2023-10-13T04:11:21;16.00;99.90
19174;DHT22;9719;49.322;8.536;2023-10-13T04:17:02;16.00;99.90
19174;DHT22;9719;49.322;8.536;2023-10-13T04:22:12;16.10;99.90
19174;DHT22;9719;49.322;8.536;2023-10-13T04:27:22;16.10;99.90
19174;DHT22;9719;49.322;8.536;2023-10-13T04:32:54;16.20;99.90
19174;DHT22;9719;49.322;8.536;2023-10-13T04:38:17;16.00;99.90
19174;DHT22;9719;49.322;8.536;2023-10-13T04:43:22;16.20;99.90
19174;DHT22;9719;49.322;8.536;2023-10-13T04:48:37;16.10;99.90
19174;DHT22;9719;49.322;8.536;2023-10-13T04:53:39;16.20;99.90
19174;DHT22;9719;49.322;8.536;2023-10-13T04:59:02;16.00;99.90
19174;DHT22;9719;49.322;8.536;2023-10-13T05:04:35;16.20;99.90
19174;DHT22;9719;49.322;8.536;2023-10-13T05:10:00;16.10;99.90
19174;DHT22;9719;49.322;8.536;2023-10-13T05:15:20;16.00;99.90
19174;DHT22;9719;49.322;8.536;2023-10-13T05:20:48;16.00;99.90
19174;DHT22;9719;49.322;8.536;2023-10-13T05:26:06;15.90;99.90
19174;DHT22;9719;49.322;8.536;2023-10-13T05:31:27;15.90;99.90
19174;DHT22;9719;49.322;8.536;2023-10-13T05:36:46;16.00;99.90
19174;DHT22;9719;49.322;8.536;2023-10-13T05:42:05;16.00;99.90
19174;DHT22;9719;49.322;8.536;2023-10-13T05:47:25;16.00;99.90
19174;DHT22;9719;49.322;8.536;2023-10-13T05:52:45;15.90;99.90
19174;DHT22;9719;49.322;8.536;2023-10-13T05:58:04;15.90;99.90
19174;DHT22;9719;49.322;8.536;2023-10-13T06:03:25;15.90;99.90
19174;DHT22;9719;49.322;8.536;2023-10-13T06:08:44;15.80;99.90
19174;DHT22;9719;49.322;8.536;2023-10-13T06:14:03;15.80;99.90
19174;DHT22;9719;49.322;8.536;2023-10-13T06:19:24;15.90;99.90
19174;DHT22;9719;49.322;8.536;2023-10-13T06:24:44;15.90;99.90
19174;DHT22;9719;49.322;8.536;2023-10-13T06:30:18;15.90;99.90
19174;DHT22;9719;49.322;8.536;2023-10-13T06:35:21;15.90;99.90
19174;DHT22;9719;49.322;8.536;2023-10-13T06:40:24;16.00;99.90
19174;DHT22;9719;49.322;8.536;2023-10-13T06:45:36;16.20;99.90
19174;DHT22;9719;49.322;8.536;2023-10-13T06:50:39;16.50;99.90
19174;DHT22;9719;49.322;8.536;2023-10-13T06:55:42;16.80;99.90
19174;DHT22;9719;49.322;8.536;2023-10-13T07:00:47;17.20;99.80
19174;DHT22;9719;49.322;8.536;2023-10-13T07:05:56;17.50;98.40
19174;DHT22;9719;49.322;8.536;2023-10-13T07:10:59;17.70;97.00
19174;DHT22;9719;49.322;8.536;2023-10-13T07:16:06;17.80;96.00
19174;DHT22;9719;49.322;8.536;2023-10-13T07:21:10;18.20;95.00
19174;DHT22;9719;49.322;8.536;2023-10-13T07:26:11;18.30;94.10
19174;DHT22;9719;49.322;8.536;2023-10-13T07:31:14;18.50;94.30
19174;DHT22;9719;49.322;8.536;2023-10-13T07:36:17;18.50;94.30
19174;DHT22;9719;49.322;8.536;2023-10-13T07:41:28;18.60;93.90
19174;DHT22;9719;49.322;8.536;2023-10-13T07:46:32;18.80;93.70
19174;DHT22;9719;49.322;8.536;2023-10-13T07:51:37;18.90;91.60
19174;DHT22;9719;49.322;8.536;2023-10-13T07:56:44;19.00;90.30
19174;DHT22;9719;49.322;8.536;2023-10-13T08:01:46;19.20;89.00
19174;DHT22;9719;49.322;8.536;2023-10-13T08:06:49;19.40;86.50
19174;DHT22;9719;49.322;8.536;2023-10-13T08:12:02;19.70;86.30
19174;DHT22;9719;49.322;8.536;2023-10-13T08:17:06;19.80;85.20
19174;DHT22;9719;49.322;8.536;2023-10-13T08:22:12;19.80;83.50
19174;DHT22;9719;49.322;8.536;2023-10-13T08:27:26;19.90;82.20
19174;DHT22;9719;49.322;8.536;2023-10-13T08:32:35;20.00;81.70
19174;DHT22;9719;49.322;8.536;2023-10-13T08:37:56;20.10;80.10
19174;DHT22;9719;49.322;8.536;2023-10-13T08:43:05;20.30;79.00
19174;DHT22;9719;49.322;8.536;2023-10-13T08:48:13;20.60;78.10
19174;DHT22;9719;49.322;8.536;2023-10-13T08:53:18;20.80;76.30
19174;DHT22;9719;49.322;8.536;2023-10-13T08:58:28;21.10;77.30
19174;DHT22;9719;49.322;8.536;2023-10-13T09:03:50;21.20;76.50
19174;DHT22;9719;49.322;8.536;2023-10-13T09:09:04;21.30;71.50
19174;DHT22;9719;49.322;8.536;2023-10-13T09:14:12;21.70;72.00
19174;DHT22;9719;49.322;8.536;2023-10-13T09:19:42;21.90;71.30
19174;DHT22;9719;49.322;8.536;2023-10-13T09:24:48;22.30;67.60
19174;DHT22;9719;49.322;8.536;2023-10-13T09:29:58;22.60;65.20
19174;DHT22;9719;49.322;8.536;2023-10-13T09:35:09;22.60;64.50
19174;DHT22;9719;49.322;8.536;2023-10-13T09:40:17;22.80;63.80
19174;DHT22;9719;49.322;8.536;2023-10-13T09:45:35;23.00;62.80
19174;DHT22;9719;49.322;8.536;2023-10-13T09:50:40;23.20;60.70
19174;DHT22;9719;49.322;8.536;2023-10-13T09:55:48;23.30;60.40
19174;DHT22;9719;49.322;8.536;2023-10-13T10:00:53;23.70;59.00
19174;DHT22;9719;49.322;8.536;2023-10-13T10:06:02;24.00;57.50
19174;DHT22;9719;49.322;8.536;2023-10-13T10:11:32;24.10;55.40
19174;DHT22;9719;49.322;8.536;2023-10-13T10:16:50;24.30;54.40
19174;DHT22;9719;49.322;8.536;2023-10-13T10:22:03;24.50;53.70
19174;DHT22;9719;49.322;8.536;2023-10-13T10:27:25;24.70;53.30
19174;DHT22;9719;49.322;8.536;2023-10-13T10:32:34;24.80;53.60
19174;DHT22;9719;49.322;8.536;2023-10-13T10:37:36;25.10;51.60
19174;DHT22;9719;49.322;8.536;2023-10-13T10:42:44;25.40;34.60
19174;DHT22;9719;49.322;8.536;2023-10-13T10:47:51;26.00;30.40
19174;DHT22;9719;49.322;8.536;2023-10-13T10:52:58;26.40;28.40
19174;DHT22;9719;49.322;8.536;2023-10-13T10:58:02;26.50;36.00
19174;DHT22;9719;49.322;8.536;2023-10-13T11:03:07;26.60;46.70
19174;DHT22;9719;49.322;8.536;2023-10-13T11:08:21;26.70;46.60
19174;DHT22;9719;49.322;8.536;2023-10-13T11:13:41;26.80;47.00
19174;DHT22;9719;49.322;8.536;2023-10-13T11:19:00;26.20;47.20
19174;DHT22;9719;49.322;8.536;2023-10-13T11:24:02;26.10;50.30
19174;DHT22;9719;49.322;8.536;2023-10-13T11:29:10;25.70;50.30
19174;DHT22;9719;49.322;8.536;2023-10-13T11:34:12;25.60;51.10
19174;DHT22;9719;49.322;8.536;2023-10-13T11:39:17;25.60;51.20
19174;DHT22;9719;49.322;8.536;2023-10-13T11:44:25;26.20;28.80
19174;DHT22;9719;49.322;8.536;2023-10-13T11:49:31;26.90;25.90
19174;DHT22;9719;49.322;8.536;2023-10-13T11:54:37;27.40;25.70
19174;DHT22;9719;49.322;8.536;2023-10-13T11:59:43;27.60;25.60
19174;DHT22;9719;49.322;8.536;2023-10-13T12:04:56;27.80;43.80
19174;DHT22;9719;49.322;8.536;2023-10-13T12:09:59;27.80;43.90
19174;DHT22;9719;49.322;8.536;2023-10-13T12:15:17;27.60;43.50
19174;DHT22;9719;49.322;8.536;2023-10-13T12:20:31;27.60;45.00
19174;DHT22;9719;49.322;8.536;2023-10-13T12:25:38;27.80;43.40
19174;DHT22;9719;49.322;8.536;2023-10-13T12:31:03;28.40;25.50
19174;DHT22;9719;49.322;8.536;2023-10-13T12:36:07;28.30;43.20
19174;DHT22;9719;49.322;8.536;2023-10-13T12:41:16;28.30;25.00
19174;DHT22;9719;49.322;8.536;2023-10-13T12:46:37;28.50;21.60
19174;DHT22;9719;49.322;8.536;2023-10-13T12:51:56;28.90;21.00
19174;DHT22;9719;49.322;8.536;2023-10-13T12:56:57;28.50;41.50
19174;DHT22;9719;49.322;8.536;2023-10-13T13:02:00;28.20;41.20
19174;DHT22;9719;49.322;8.536;2023-10-13T13:07:07;28.00;44.40
19174;DHT22;9719;49.322;8.536;2023-10-13T13:12:13;27.60;36.90
19174;DHT22;9719;49.322;8.536;2023-10-13T13:17:16;28.00;39.70
19174;DHT22;9719;49.322;8.536;2023-10-13T13:22:18;28.30;40.30
19174;DHT22;9719;49.322;8.536;2023-10-13T13:27:21;28.20;42.70
19174;DHT22;9719;49.322;8.536;2023-10-13T13:32:24;27.70;41.90
19174;DHT22;9719;49.322;8.536;2023-10-13T13:37:25;27.80;43.40
19174;DHT22;9719;49.322;8.536;2023-10-13T13:42:29;27.80;41.20
19174;DHT22;9719;49.322;8.536;2023-10-13T13:47:38;27.80;43.20
19174;DHT22;9719;49.322;8.536;2023-10-13T13:52:40;27.80;42.50
19174;DHT22;9719;49.322;8.536;2023-10-13T13:57:46;27.80;43.40
19174;DHT22;9719;49.322;8.536;2023-10-13T14:02:52;27.50;43.30
19174;DHT22;9719;49.322;8.536;2023-10-13T14:07:55;27.40;43.90
19174;DHT22;9719;49.322;8.536;2023-10-13T14:13:00;27.20;46.10
19174;DHT22;9719;49.322;8.536;2023-10-13T14:18:14;26.90;46.80
19174;DHT22;9719;49.322;8.536;2023-10-13T14:23:16;26.80;46.00
19174;DHT22;9719;49.322;8.536;2023-10-13T14:28:19;26.90;44.90
19174;DHT22;9719;49.322;8.536;2023-10-13T14:33:22;27.10;45.40
19174;DHT22;9719;49.322;8.536;2023-10-13T14:38:26;27.10;45.50
19174;DHT22;9719;49.322;8.536;2023-10-13T14:43:27;27.10;44.90
19174;DHT22;9719;49.322;8.536;2023-10-13T14:48:31;27.20;45.10
19174;DHT22;9719;49.322;8.536;2023-10-13T14:53:32;27.40;43.90
19174;DHT22;9719;49.322;8.536;2023-10-13T14:58:34;27.50;43.70
19174;DHT22;9719;49.322;8.536;2023-10-13T15:03:37;27.30;44.90
19174;DHT22;9719;49.322;8.536;2023-10-13T15:08:39;27.10;45.30
19174;DHT22;9719;49.322;8.536;2023-10-13T15:13:46;27.20;45.80
19174;DHT22;9719;49.322;8.536;2023-10-13T15:18:51;27.20;45.80
19174;DHT22;9719;49.322;8.536;2023-10-13T15:23:53;27.10;46.30
19174;DHT22;9719;49.322;8.536;2023-10-13T15:28:59;27.00;46.50
19174;DHT22;9719;49.322;8.536;2023-10-13T15:34:03;26.70;46.60
19174;DHT22;9719;49.322;8.536;2023-10-13T15:39:07;26.50;47.10
19174;DHT22;9719;49.322;8.536;2023-10-13T15:44:11;26.40;47.30
19174;DHT22;9719;49.322;8.536;2023-10-13T15:49:15;26.20;47.80
19174;DHT22;9719;49.322;8.536;2023-10-13T15:54:17;26.10;48.30
19174;DHT22;9719;49.322;8.536;2023-10-13T15:59:19;25.90;48.40
19174;DHT22;9719;49.322;8.536;2023-10-13T16:04:24;25.80;48.40
19174;DHT22;9719;49.322;8.536;2023-10-13T16:09:26;25.50;48.90
19174;DHT22;9719;49.322;8.536;2023-10-13T16:14:28;25.30;49.30
19174;DHT22;9719;49.322;8.536;2023-10-13T16:19:37;25.10;49.80
19174;DHT22;9719;49.322;8.536;2023-10-13T16:24:40;25.10;49.70
19174;DHT22;9719;49.322;8.536;2023-10-13T16:29:41;25.00;50.00
19174;DHT22;9719;49.322;8.536;2023-10-13T16:34:45;24.70;50.30
19174;DHT22;9719;49.322;8.536;2023-10-13T16:39:47;24.70;50.40
19174;DHT22;9719;49.322;8.536;2023-10-13T16:44:48;24.30;50.50
19174;DHT22;9719;49.322;8.536;2023-10-13T16:49:51;24.20;50.80
19174;DHT22;9719;49.322;8.536;2023-10-13T16:54:53;24.00;51.00
19174;DHT22;9719;49.322;8.536;2023-10-13T16:59:55;23.90;51.10
19174;DHT22;9719;49.322;8.536;2023-10-13T17:04:58;23.70;51.10
19174;DHT22;9719;49.322;8.536;2023-10-13T17:09:59;23.70;51.10
19174;DHT22;9719;49.322;8.536;2023-10-13T17:15:03;23.50;50.90
19174;DHT22;9719;49.322;8.536;2023-10-13T17:20:16;23.50;50.50
19174;DHT22;9719;49.322;8.536;2023-10-13T17:25:19;23.40;50.40
19174;DHT22;9719;49.322;8.536;2023-10-13T17:30:20;23.20;50.60
19174;DHT22;9719;49.322;8.536;2023-10-13T17:35:23;23.30;50.50
19174;DHT22;9719;49.322;8.536;2023-10-13T17:40:25;23.10;50.30
19174;DHT22;9719;49.322;8.536;2023-10-13T17:45:28;23.10;49.90
19174;DHT22;9719;49.322;8.536;2023-10-13T17:50:32;23.20;49.80
19174;DHT22;9719;49.322;8.536;2023-10-13T17:55:36;23.10;50.40
19174;DHT22;9719;49.322;8.536;2023-10-13T18:00:39;23.10;50.20
19174;DHT22;9719;49.322;8.536;2023-10-13T18:05:45;23.10;50.40
19174;DHT22;9719;49.322;8.536;2023-10-13T18:10:51;23.10;49.90
19174;DHT22;9719;49.322;8.536;2023-10-13T18:15:53;23.30;50.30
19174;DHT22;9719;49.322;8.536;2023-10-13T18:21:02;23.20;50.00
19174;DHT22;9719;49.322;8.536;2023-10-13T18:26:08;22.90;51.10
19174;DHT22;9719;49.322;8.536;2023-10-13T18:31:12;22.90;51.00
19174;DHT22;9719;49.322;8.536;2023-10-13T18:36:16;22.90;51.30
19174;DHT22;9719;49.322;8.536;2023-10-13T18:41:18;22.80;53.50
19174;DHT22;9719;49.322;8.536;2023-10-13T18:46:25;22.60;52.60
19174;DHT22;9719;49.322;8.536;2023-10-13T18:51:28;22.50;53.10
19174;DHT22;9719;49.322;8.536;2023-10-13T18:56:33;22.40;52.30
19174;DHT22;9719;49.322;8.536;2023-10-13T19:01:35;22.60;51.30
19174;DHT22;9719;49.322;8.536;2023-10-13T19:06:41;22.60;50.70
19174;DHT22;9719;49.322;8.536;2023-10-13T19:11:43;22.70;50.50
19174;DHT22;9719;49.322;8.536;2023-10-13T19:16:46;22.70;50.40
19174;DHT22;9719;49.322;8.536;2023-10-13T19:21:49;22.70;50.20
19174;DHT22;9719;49.322;8.536;2023-10-13T19:26:51;22.70;50.40
19174;DHT22;9719;49.322;8.536;2023-10-13T19:31:54;22.60;50.50
19174;DHT22;9719;49.322;8.536;2023-10-13T19:36:57;22.70;50.80
19174;DHT22;9719;49.322;8.536;2023-10-13T19:42:04;22.80;51.00
19174;DHT22;9719;49.322;8.536;2023-10-13T19:47:07;22.60;51.20
19174;DHT22;9719;49.322;8.536;2023-10-13T19:52:15;22.60;51.50
19174;DHT22;9719;49.322;8.536;2023-10-13T19:57:22;22.40;51.70
19174;DHT22;9719;49.322;8.536;2023-10-13T20:02:24;22.30;52.00
19174;DHT22;9719;49.322;8.536;2023-10-13T20:07:28;22.40;52.30
19174;DHT22;9719;49.322;8.536;2023-10-13T20:12:30;22.20;52.70
19174;DHT22;9719;49.322;8.536;2023-10-13T20:17:31;22.00;52.90
19174;DHT22;9719;49.322;8.536;2023-10-13T20:22:34;22.00;53.20
19174;DHT22;9719;49.322;8.536;2023-10-13T20:27:40;22.00;53.60
19174;DHT22;9719;49.322;8.536;2023-10-13T20:32:42;22.00;53.90
19174;DHT22;9719;49.322;8.536;2023-10-13T20:37:47;21.90;53.90
19174;DHT22;9719;49.322;8.536;2023-10-13T20:42:50;22.20;54.30
19174;DHT22;9719;49.322;8.536;2023-10-13T20:47:52;22.00;54.40
19174;DHT22;9719;49.322;8.536;2023-10-13T20:52:55;21.90;54.30
19174;DHT22;9719;49.322;8.536;2023-10-13T20:57:57;22.00;54.20
19174;DHT22;9719;49.322;8.536;2023-10-13T21:02:59;22.00;54.20
19174;DHT22;9719;49.322;8.536;2023-10-13T21:08:02;21.90;54.20
19174;DHT22;9719;49.322;8.536;2023-10-13T21:13:04;22.10;54.10
19174;DHT22;9719;49.322;8.536;2023-10-13T21:18:06;22.20;53.80
19174;DHT22;9719;49.322;8.536;2023-10-13T21:23:09;22.20;53.80
19174;DHT22;9719;49.322;8.536;2023-10-13T21:28:11;22.40;53.20
19174;DHT22;9719;49.322;8.536;2023-10-13T21:33:13;22.40;53.30
19174;DHT22;9719;49.322;8.536;2023-10-13T21:38:18;22.40;52.70
19174;DHT22;9719;49.322;8.536;2023-10-13T21:43:20;22.80;52.50
19174;DHT22;9719;49.322;8.536;2023-10-13T21:48:22;22.80;52.70
19174;DHT22;9719;49.322;8.536;2023-10-13T21:53:25;22.80;52.90
19174;DHT22;9719;49.322;8.536;2023-10-13T21:58:27;22.90;53.00
19174;DHT22;9719;49.322;8.536;2023-10-13T22:03:29;22.70;53.00
19174;DHT22;9719;49.322;8.536;2023-10-13T22:08:32;22.90;53.20
19174;DHT22;9719;49.322;8.536;2023-10-13T22:13:34;22.60;53.70
19174;DHT22;9719;49.322;8.536;2023-10-13T22:18:37;22.50;54.30
19174;DHT22;9719;49.322;8.536;2023-10-13T22:23:42;22.50;55.10
19174;DHT22;9719;49.322;8.536;2023-10-13T22:28:46;22.40;55.30
19174;DHT22;9719;49.322;8.536;2023-10-13T22:33:49;22.30;55.70
19174;DHT22;9719;49.322;8.536;2023-10-13T22:38:54;22.20;56.10
19174;DHT22;9719;49.322;8.536;2023-10-13T22:43:57;22.10;56.40
19174;DHT22;9719;49.322;8.536;2023-10-13T22:48:59;22.20;56.70
19174;DHT22;9719;49.322;8.536;2023-10-13T22:54:02;22.10;57.00
19174;DHT22;9719;49.322;8.536;2023-10-13T22:59:05;22.30;57.50
19174;DHT22;9719;49.322;8.536;2023-10-13T23:04:07;22.20;59.10
19174;DHT22;9719;49.322;8.536;2023-10-13T23:09:16;22.20;60.00
19174;DHT22;9719;49.322;8.536;2023-10-13T23:14:25;22.10;59.90
19174;DHT22;9719;49.322;8.536;2023-10-13T23:19:27;22.10;59.60
19174;DHT22;9719;49.322;8.536;2023-10-13T23:24:30;22.10;59.20
19174;DHT22;9719;49.322;8.536;2023-10-13T23:29:32;22.10;59.70
19174;DHT22;9719;49.322;8.536;2023-10-13T23:34:36;22.10;59.60
19174;DHT22;9719;49.322;8.536;2023-10-13T23:39:39;22.20;58.90
19174;DHT22;9719;49.322;8.536;2023-10-13T23:44:41;22.10;58.70
19174;DHT22;9719;49.322;8.536;2023-10-13T23:49:47;22.10;59.10
19174;DHT22;9719;49.322;8.536;2023-10-13T23:54:52;22.00;59.60
19174;DHT22;9719;49.322;8.536;2023-10-13T23:59:56;22.00;60.40
